sensor_id;sensor_type;location;lat;lon;timestamp;P1;durP1;ratioP1;P2;durP2;ratioP2
8092;SDS011;4089;52.420;13.334;2023-05-10T00:01:20;27.57;;;7.20;;
8092;SDS011;4089;52.420;13.334;2023-05-10T00:03:47;26.30;;;6.93;;
8092;SDS011;4089;52.420;13.334;2023-05-10T00:06:14;25.47;;;6.63;;
8092;SDS011;4089;52.420;13.334;2023-05-10T00:08:41;23.77;;;6.53;;
8092;SDS011;4089;52.420;13.334;2023-05-10T00:11:08;27.37;;;6.60;;
8092;SDS011;4089;52.420;13.334;2023-05-10T00:13:35;25.20;;;6.27;;
8092;SDS011;4089;52.420;13.334;2023-05-10T00:16:01;24.30;;;6.70;;
8092;SDS011;4089;52.420;13.334;2023-05-10T00:18:29;31.23;;;6.77;;
8092;SDS011;4089;52.420;13.334;2023-05-10T00:20:55;24.30;;;6.73;;
8092;SDS011;4089;52.420;13.334;2023-05-10T00:23:22;24.60;;;6.70;;
8092;SDS011;4089;52.420;13.334;2023-05-10T00:25:49;24.83;;;6.50;;
8092;SDS011;4089;52.420;13.334;2023-05-10T00:28:16;27.20;;;7.10;;
8092;SDS011;4089;52.420;13.334;2023-05-10T00:30:43;23.10;;;6.67;;
8092;SDS011;4089;52.420;13.334;2023-05-10T00:33:09;24.30;;;6.93;;
8092;SDS011;4089;52.420;13.334;2023-05-10T00:35:37;27.43;;;6.97;;
8092;SDS011;4089;52.420;13.334;2023-05-10T00:38:04;25.30;;;6.90;;
8092;SDS011;4089;52.420;13.334;2023-05-10T00:40:31;24.27;;;7.20;;
8092;SDS011;4089;52.420;13.334;2023-05-10T00:42:58;27.17;;;6.70;;
8092;SDS011;4089;52.420;13.334;2023-05-10T00:45:26;25.30;;;6.90;;
8092;SDS011;4089;52.420;13.334;2023-05-10T00:47:53;26.83;;;7.63;;
8092;SDS011;4089;52.420;13.334;2023-05-10T00:50:22;24.70;;;7.50;;
8092;SDS011;4089;52.420;13.334;2023-05-10T00:52:49;27.73;;;7.37;;
8092;SDS011;4089;52.420;13.334;2023-05-10T00:55:16;27.20;;;7.77;;
8092;SDS011;4089;52.420;13.334;2023-05-10T00:57:44;24.87;;;6.70;;
8092;SDS011;4089;52.420;13.334;2023-05-10T01:00:12;26.00;;;6.87;;
8092;SDS011;4089;52.420;13.334;2023-05-10T01:02:44;24.60;;;6.97;;
8092;SDS011;4089;52.420;13.334;2023-05-10T01:05:12;26.77;;;6.77;;
8092;SDS011;4089;52.420;13.334;2023-05-10T01:07:39;32.33;;;7.10;;
8092;SDS011;4089;52.420;13.334;2023-05-10T01:10:07;26.47;;;7.17;;
8092;SDS011;4089;52.420;13.334;2023-05-10T01:12:35;24.53;;;6.93;;
8092;SDS011;4089;52.420;13.334;2023-05-10T01:15:07;24.40;;;7.53;;
8092;SDS011;4089;52.420;13.334;2023-05-10T01:17:37;24.33;;;7.03;;
8092;SDS011;4089;52.420;13.334;2023-05-10T01:20:07;26.50;;;6.70;;
8092;SDS011;4089;52.420;13.334;2023-05-10T01:27:56;23.83;;;6.70;;
8092;SDS011;4089;52.420;13.334;2023-05-10T01:33:26;27.33;;;8.30;;
8092;SDS011;4089;52.420;13.334;2023-05-10T01:36:08;24.50;;;6.60;;
8092;SDS011;4089;52.420;13.334;2023-05-10T01:38:38;27.70;;;7.10;;
8092;SDS011;4089;52.420;13.334;2023-05-10T01:41:21;24.77;;;7.20;;
8092;SDS011;4089;52.420;13.334;2023-05-10T01:44:16;23.67;;;6.90;;
8092;SDS011;4089;52.420;13.334;2023-05-10T01:46:57;26.67;;;7.40;;
8092;SDS011;4089;52.420;13.334;2023-05-10T01:49:47;25.90;;;7.97;;
8092;SDS011;4089;52.420;13.334;2023-05-10T01:52:18;27.10;;;7.67;;
8092;SDS011;4089;52.420;13.334;2023-05-10T01:54:53;26.10;;;7.10;;
8092;SDS011;4089;52.420;13.334;2023-05-10T01:57:26;24.50;;;7.00;;
8092;SDS011;4089;52.420;13.334;2023-05-10T01:59:58;24.67;;;8.00;;
8092;SDS011;4089;52.420;13.334;2023-05-10T02:02:33;29.13;;;7.43;;
8092;SDS011;4089;52.420;13.334;2023-05-10T02:05:07;28.60;;;7.90;;
8092;SDS011;4089;52.420;13.334;2023-05-10T02:07:35;26.33;;;7.50;;
8092;SDS011;4089;52.420;13.334;2023-05-10T02:10:04;24.00;;;7.33;;
8092;SDS011;4089;52.420;13.334;2023-05-10T02:12:37;27.07;;;8.23;;
8092;SDS011;4089;52.420;13.334;2023-05-10T02:15:09;26.40;;;7.63;;
8092;SDS011;4089;52.420;13.334;2023-05-10T02:17:37;26.50;;;8.23;;
8092;SDS011;4089;52.420;13.334;2023-05-10T02:20:06;27.93;;;8.03;;
8092;SDS011;4089;52.420;13.334;2023-05-10T02:22:34;27.73;;;7.43;;
8092;SDS011;4089;52.420;13.334;2023-05-10T02:25:02;32.10;;;8.87;;
8092;SDS011;4089;52.420;13.334;2023-05-10T02:27:30;29.60;;;7.93;;
8092;SDS011;4089;52.420;13.334;2023-05-10T02:29:57;24.10;;;7.63;;
8092;SDS011;4089;52.420;13.334;2023-05-10T02:32:26;30.33;;;8.60;;
8092;SDS011;4089;52.420;13.334;2023-05-10T02:34:54;26.53;;;8.50;;
8092;SDS011;4089;52.420;13.334;2023-05-10T02:37:22;26.10;;;8.27;;
8092;SDS011;4089;52.420;13.334;2023-05-10T02:39:50;27.40;;;8.47;;
8092;SDS011;4089;52.420;13.334;2023-05-10T02:42:18;25.60;;;8.27;;
8092;SDS011;4089;52.420;13.334;2023-05-10T02:44:49;25.00;;;8.07;;
8092;SDS011;4089;52.420;13.334;2023-05-10T02:47:18;25.53;;;8.27;;
8092;SDS011;4089;52.420;13.334;2023-05-10T02:49:46;25.20;;;8.10;;
8092;SDS011;4089;52.420;13.334;2023-05-10T02:52:14;24.37;;;7.40;;
8092;SDS011;4089;52.420;13.334;2023-05-10T02:54:45;29.13;;;7.83;;
8092;SDS011;4089;52.420;13.334;2023-05-10T02:57:17;26.60;;;8.70;;
8092;SDS011;4089;52.420;13.334;2023-05-10T02:59:48;26.07;;;8.13;;
8092;SDS011;4089;52.420;13.334;2023-05-10T03:02:15;25.03;;;8.00;;
8092;SDS011;4089;52.420;13.334;2023-05-10T03:04:42;27.10;;;7.10;;
8092;SDS011;4089;52.420;13.334;2023-05-10T03:07:09;25.37;;;7.67;;
8092;SDS011;4089;52.420;13.334;2023-05-10T03:09:36;24.67;;;7.50;;
8092;SDS011;4089;52.420;13.334;2023-05-10T03:15:03;24.20;;;7.80;;
8092;SDS011;4089;52.420;13.334;2023-05-10T03:17:48;28.40;;;8.50;;
8092;SDS011;4089;52.420;13.334;2023-05-10T03:21:05;28.87;;;7.50;;
8092;SDS011;4089;52.420;13.334;2023-05-10T03:26:05;24.87;;;6.73;;
8092;SDS011;4089;52.420;13.334;2023-05-10T03:28:33;26.30;;;7.30;;
8092;SDS011;4089;52.420;13.334;2023-05-10T03:31:02;25.90;;;7.90;;
8092;SDS011;4089;52.420;13.334;2023-05-10T03:33:30;29.70;;;7.83;;
8092;SDS011;4089;52.420;13.334;2023-05-10T03:35:58;26.67;;;7.90;;
8092;SDS011;4089;52.420;13.334;2023-05-10T03:38:24;23.30;;;7.90;;
8092;SDS011;4089;52.420;13.334;2023-05-10T03:40:54;24.13;;;7.33;;
8092;SDS011;4089;52.420;13.334;2023-05-10T03:43:21;27.10;;;7.53;;
8092;SDS011;4089;52.420;13.334;2023-05-10T03:45:48;24.87;;;7.17;;
8092;SDS011;4089;52.420;13.334;2023-05-10T03:48:15;26.03;;;8.20;;
8092;SDS011;4089;52.420;13.334;2023-05-10T03:50:42;25.53;;;7.77;;
8092;SDS011;4089;52.420;13.334;2023-05-10T03:53:09;27.70;;;7.87;;
8092;SDS011;4089;52.420;13.334;2023-05-10T03:55:35;25.50;;;7.83;;
8092;SDS011;4089;52.420;13.334;2023-05-10T03:58:02;25.43;;;7.30;;
8092;SDS011;4089;52.420;13.334;2023-05-10T04:00:29;35.70;;;7.37;;
8092;SDS011;4089;52.420;13.334;2023-05-10T04:02:57;27.30;;;7.13;;
8092;SDS011;4089;52.420;13.334;2023-05-10T04:05:24;27.07;;;8.33;;
8092;SDS011;4089;52.420;13.334;2023-05-10T04:07:50;28.70;;;7.73;;
8092;SDS011;4089;52.420;13.334;2023-05-10T04:10:17;28.50;;;7.83;;
8092;SDS011;4089;52.420;13.334;2023-05-10T04:12:44;25.90;;;6.90;;
8092;SDS011;4089;52.420;13.334;2023-05-10T04:15:11;23.80;;;7.10;;
8092;SDS011;4089;52.420;13.334;2023-05-10T04:17:38;24.00;;;7.03;;
8092;SDS011;4089;52.420;13.334;2023-05-10T04:20:06;24.53;;;6.83;;
8092;SDS011;4089;52.420;13.334;2023-05-10T04:22:33;27.27;;;7.57;;
8092;SDS011;4089;52.420;13.334;2023-05-10T04:25:00;24.47;;;6.87;;
8092;SDS011;4089;52.420;13.334;2023-05-10T04:27:27;25.87;;;7.40;;
8092;SDS011;4089;52.420;13.334;2023-05-10T04:29:54;25.70;;;7.10;;
8092;SDS011;4089;52.420;13.334;2023-05-10T04:32:20;23.30;;;6.13;;
8092;SDS011;4089;52.420;13.334;2023-05-10T04:34:47;24.20;;;6.80;;
8092;SDS011;4089;52.420;13.334;2023-05-10T04:37:14;25.30;;;6.53;;
8092;SDS011;4089;52.420;13.334;2023-05-10T04:39:41;23.60;;;6.50;;
8092;SDS011;4089;52.420;13.334;2023-05-10T04:42:08;27.03;;;6.73;;
8092;SDS011;4089;52.420;13.334;2023-05-10T04:44:35;25.57;;;7.37;;
8092;SDS011;4089;52.420;13.334;2023-05-10T04:47:02;26.17;;;6.23;;
8092;SDS011;4089;52.420;13.334;2023-05-10T04:49:29;23.83;;;6.17;;
8092;SDS011;4089;52.420;13.334;2023-05-10T04:51:56;22.40;;;5.90;;
8092;SDS011;4089;52.420;13.334;2023-05-10T04:54:23;25.00;;;5.57;;
8092;SDS011;4089;52.420;13.334;2023-05-10T04:56:50;25.80;;;6.10;;
8092;SDS011;4089;52.420;13.334;2023-05-10T04:59:17;24.63;;;6.27;;
8092;SDS011;4089;52.420;13.334;2023-05-10T05:01:44;25.30;;;5.37;;
8092;SDS011;4089;52.420;13.334;2023-05-10T05:04:11;25.57;;;5.53;;
8092;SDS011;4089;52.420;13.334;2023-05-10T05:06:37;26.57;;;6.53;;
8092;SDS011;4089;52.420;13.334;2023-05-10T05:09:04;29.10;;;6.20;;
8092;SDS011;4089;52.420;13.334;2023-05-10T05:11:31;32.50;;;5.73;;
8092;SDS011;4089;52.420;13.334;2023-05-10T05:13:58;25.63;;;6.30;;
8092;SDS011;4089;52.420;13.334;2023-05-10T05:16:25;23.80;;;5.80;;
8092;SDS011;4089;52.420;13.334;2023-05-10T05:18:52;25.47;;;5.87;;
8092;SDS011;4089;52.420;13.334;2023-05-10T05:21:19;24.60;;;5.80;;
8092;SDS011;4089;52.420;13.334;2023-05-10T05:23:47;22.10;;;5.23;;
8092;SDS011;4089;52.420;13.334;2023-05-10T05:26:14;22.97;;;4.57;;
8092;SDS011;4089;52.420;13.334;2023-05-10T05:28:41;29.07;;;5.47;;
8092;SDS011;4089;52.420;13.334;2023-05-10T05:31:08;21.57;;;5.03;;
8092;SDS011;4089;52.420;13.334;2023-05-10T05:33:35;21.70;;;5.00;;
8092;SDS011;4089;52.420;13.334;2023-05-10T05:36:03;23.90;;;4.70;;
8092;SDS011;4089;52.420;13.334;2023-05-10T05:38:31;21.23;;;4.70;;
8092;SDS011;4089;52.420;13.334;2023-05-10T05:40:58;22.67;;;4.50;;
8092;SDS011;4089;52.420;13.334;2023-05-10T05:43:24;20.97;;;4.03;;
8092;SDS011;4089;52.420;13.334;2023-05-10T05:45:52;21.10;;;4.57;;
8092;SDS011;4089;52.420;13.334;2023-05-10T05:48:20;21.37;;;4.43;;
8092;SDS011;4089;52.420;13.334;2023-05-10T05:50:47;22.67;;;5.43;;
8092;SDS011;4089;52.420;13.334;2023-05-10T05:53:14;24.43;;;4.20;;
8092;SDS011;4089;52.420;13.334;2023-05-10T05:55:54;22.80;;;4.10;;
8092;SDS011;4089;52.420;13.334;2023-05-10T05:58:23;22.33;;;4.43;;
8092;SDS011;4089;52.420;13.334;2023-05-10T06:00:51;25.33;;;3.63;;
8092;SDS011;4089;52.420;13.334;2023-05-10T06:03:18;21.80;;;4.20;;
8092;SDS011;4089;52.420;13.334;2023-05-10T06:05:46;24.07;;;3.90;;
8092;SDS011;4089;52.420;13.334;2023-05-10T06:08:13;20.70;;;4.10;;
8092;SDS011;4089;52.420;13.334;2023-05-10T06:10:39;21.97;;;4.10;;
8092;SDS011;4089;52.420;13.334;2023-05-10T06:13:06;22.80;;;3.30;;
8092;SDS011;4089;52.420;13.334;2023-05-10T06:15:33;23.80;;;3.70;;
8092;SDS011;4089;52.420;13.334;2023-05-10T06:18:00;24.50;;;4.40;;
8092;SDS011;4089;52.420;13.334;2023-05-10T06:20:27;20.20;;;3.70;;
8092;SDS011;4089;52.420;13.334;2023-05-10T06:22:54;24.53;;;3.30;;
8092;SDS011;4089;52.420;13.334;2023-05-10T06:25:21;22.10;;;3.30;;
8092;SDS011;4089;52.420;13.334;2023-05-10T06:27:47;32.60;;;3.77;;
8092;SDS011;4089;52.420;13.334;2023-05-10T06:30:19;22.63;;;3.77;;
8092;SDS011;4089;52.420;13.334;2023-05-10T06:32:46;29.97;;;4.53;;
8092;SDS011;4089;52.420;13.334;2023-05-10T06:35:13;21.13;;;3.40;;
8092;SDS011;4089;52.420;13.334;2023-05-10T06:37:40;24.40;;;3.53;;
8092;SDS011;4089;52.420;13.334;2023-05-10T06:40:07;20.60;;;3.10;;
8092;SDS011;4089;52.420;13.334;2023-05-10T06:42:35;23.23;;;3.97;;
8092;SDS011;4089;52.420;13.334;2023-05-10T06:45:02;23.50;;;3.70;;
8092;SDS011;4089;52.420;13.334;2023-05-10T06:47:29;21.00;;;2.70;;
8092;SDS011;4089;52.420;13.334;2023-05-10T06:49:56;28.70;;;3.30;;
8092;SDS011;4089;52.420;13.334;2023-05-10T06:52:23;24.83;;;3.87;;
8092;SDS011;4089;52.420;13.334;2023-05-10T06:54:50;22.73;;;3.30;;
8092;SDS011;4089;52.420;13.334;2023-05-10T06:57:17;25.97;;;4.40;;
8092;SDS011;4089;52.420;13.334;2023-05-10T06:59:57;22.97;;;3.40;;
8092;SDS011;4089;52.420;13.334;2023-05-10T07:02:26;24.37;;;3.60;;
8092;SDS011;4089;52.420;13.334;2023-05-10T07:04:54;23.80;;;3.40;;
8092;SDS011;4089;52.420;13.334;2023-05-10T07:07:21;22.17;;;3.23;;
8092;SDS011;4089;52.420;13.334;2023-05-10T07:09:47;22.80;;;4.13;;
8092;SDS011;4089;52.420;13.334;2023-05-10T07:12:16;21.23;;;3.00;;
8092;SDS011;4089;52.420;13.334;2023-05-10T07:14:42;24.90;;;3.07;;
8092;SDS011;4089;52.420;13.334;2023-05-10T07:17:09;24.27;;;3.00;;
8092;SDS011;4089;52.420;13.334;2023-05-10T07:19:36;21.80;;;3.20;;
8092;SDS011;4089;52.420;13.334;2023-05-10T07:22:03;21.37;;;3.43;;
8092;SDS011;4089;52.420;13.334;2023-05-10T07:24:30;24.97;;;2.73;;
8092;SDS011;4089;52.420;13.334;2023-05-10T07:26:58;20.77;;;3.20;;
8092;SDS011;4089;52.420;13.334;2023-05-10T07:29:25;20.70;;;2.50;;
8092;SDS011;4089;52.420;13.334;2023-05-10T07:31:52;22.30;;;3.50;;
8092;SDS011;4089;52.420;13.334;2023-05-10T07:34:22;21.17;;;3.17;;
8092;SDS011;4089;52.420;13.334;2023-05-10T07:36:49;21.27;;;2.97;;
8092;SDS011;4089;52.420;13.334;2023-05-10T07:39:15;24.97;;;3.60;;
8092;SDS011;4089;52.420;13.334;2023-05-10T07:41:52;29.80;;;3.00;;
8092;SDS011;4089;52.420;13.334;2023-05-10T07:44:19;20.70;;;2.87;;
8092;SDS011;4089;52.420;13.334;2023-05-10T07:46:47;22.90;;;2.90;;
8092;SDS011;4089;52.420;13.334;2023-05-10T07:49:14;25.43;;;3.40;;
8092;SDS011;4089;52.420;13.334;2023-05-10T07:51:41;20.77;;;2.90;;
8092;SDS011;4089;52.420;13.334;2023-05-10T07:54:08;25.00;;;3.03;;
8092;SDS011;4089;52.420;13.334;2023-05-10T07:56:35;21.67;;;2.93;;
8092;SDS011;4089;52.420;13.334;2023-05-10T07:59:03;23.10;;;2.70;;
8092;SDS011;4089;52.420;13.334;2023-05-10T08:01:31;22.37;;;3.87;;
8092;SDS011;4089;52.420;13.334;2023-05-10T08:03:59;22.77;;;3.10;;
8092;SDS011;4089;52.420;13.334;2023-05-10T08:06:28;25.17;;;3.10;;
8092;SDS011;4089;52.420;13.334;2023-05-10T08:08:56;26.73;;;3.03;;
8092;SDS011;4089;52.420;13.334;2023-05-10T08:11:23;25.23;;;3.20;;
8092;SDS011;4089;52.420;13.334;2023-05-10T08:13:51;26.87;;;3.70;;
8092;SDS011;4089;52.420;13.334;2023-05-10T08:16:18;24.40;;;3.10;;
8092;SDS011;4089;52.420;13.334;2023-05-10T08:18:45;25.70;;;3.37;;
8092;SDS011;4089;52.420;13.334;2023-05-10T08:21:13;22.40;;;2.93;;
8092;SDS011;4089;52.420;13.334;2023-05-10T08:23:41;28.33;;;3.40;;
8092;SDS011;4089;52.420;13.334;2023-05-10T08:26:10;23.73;;;3.03;;
8092;SDS011;4089;52.420;13.334;2023-05-10T08:28:37;24.03;;;3.50;;
8092;SDS011;4089;52.420;13.334;2023-05-10T08:31:05;25.47;;;3.40;;
8092;SDS011;4089;52.420;13.334;2023-05-10T08:33:32;21.70;;;3.00;;
8092;SDS011;4089;52.420;13.334;2023-05-10T08:35:59;25.50;;;3.07;;
8092;SDS011;4089;52.420;13.334;2023-05-10T08:38:26;22.40;;;2.60;;
8092;SDS011;4089;52.420;13.334;2023-05-10T08:40:53;31.77;;;3.27;;
8092;SDS011;4089;52.420;13.334;2023-05-10T08:43:28;30.30;;;2.80;;
8092;SDS011;4089;52.420;13.334;2023-05-10T08:45:56;23.50;;;2.63;;
8092;SDS011;4089;52.420;13.334;2023-05-10T08:48:29;24.53;;;3.30;;
8092;SDS011;4089;52.420;13.334;2023-05-10T08:50:58;22.83;;;3.23;;
8092;SDS011;4089;52.420;13.334;2023-05-10T08:53:26;24.13;;;3.43;;
8092;SDS011;4089;52.420;13.334;2023-05-10T08:55:54;24.13;;;2.77;;
8092;SDS011;4089;52.420;13.334;2023-05-10T08:58:21;22.57;;;2.63;;
8092;SDS011;4089;52.420;13.334;2023-05-10T09:00:49;26.03;;;3.60;;
8092;SDS011;4089;52.420;13.334;2023-05-10T09:03:18;23.10;;;2.90;;
8092;SDS011;4089;52.420;13.334;2023-05-10T09:05:46;25.13;;;2.87;;
8092;SDS011;4089;52.420;13.334;2023-05-10T09:08:13;26.67;;;3.27;;
8092;SDS011;4089;52.420;13.334;2023-05-10T09:10:45;22.13;;;2.70;;
8092;SDS011;4089;52.420;13.334;2023-05-10T09:13:14;25.90;;;2.70;;
8092;SDS011;4089;52.420;13.334;2023-05-10T09:15:44;24.50;;;3.27;;
8092;SDS011;4089;52.420;13.334;2023-05-10T09:18:12;24.50;;;3.27;;
8092;SDS011;4089;52.420;13.334;2023-05-10T09:20:39;25.13;;;3.00;;
8092;SDS011;4089;52.420;13.334;2023-05-10T09:23:06;25.07;;;3.73;;
8092;SDS011;4089;52.420;13.334;2023-05-10T09:25:33;23.80;;;3.30;;
8092;SDS011;4089;52.420;13.334;2023-05-10T09:28:01;25.20;;;3.70;;
8092;SDS011;4089;52.420;13.334;2023-05-10T09:30:29;23.13;;;3.03;;
8092;SDS011;4089;52.420;13.334;2023-05-10T09:32:57;24.77;;;3.00;;
8092;SDS011;4089;52.420;13.334;2023-05-10T09:35:26;23.47;;;3.60;;
8092;SDS011;4089;52.420;13.334;2023-05-10T09:37:56;23.33;;;2.70;;
8092;SDS011;4089;52.420;13.334;2023-05-10T09:40:26;23.30;;;3.00;;
8092;SDS011;4089;52.420;13.334;2023-05-10T09:42:55;21.30;;;2.50;;
8092;SDS011;4089;52.420;13.334;2023-05-10T09:45:34;23.37;;;3.27;;
8092;SDS011;4089;52.420;13.334;2023-05-10T09:48:04;22.40;;;2.77;;
8092;SDS011;4089;52.420;13.334;2023-05-10T09:50:31;23.90;;;2.93;;
8092;SDS011;4089;52.420;13.334;2023-05-10T09:53:01;23.57;;;3.17;;
8092;SDS011;4089;52.420;13.334;2023-05-10T09:58:06;28.43;;;3.20;;
8092;SDS011;4089;52.420;13.334;2023-05-10T10:00:37;23.63;;;3.40;;
8092;SDS011;4089;52.420;13.334;2023-05-10T10:03:15;27.23;;;2.90;;
8092;SDS011;4089;52.420;13.334;2023-05-10T10:05:43;22.57;;;2.33;;
8092;SDS011;4089;52.420;13.334;2023-05-10T10:08:11;25.50;;;3.27;;
8092;SDS011;4089;52.420;13.334;2023-05-10T10:10:39;25.90;;;2.90;;
8092;SDS011;4089;52.420;13.334;2023-05-10T10:13:11;25.20;;;3.10;;
8092;SDS011;4089;52.420;13.334;2023-05-10T10:15:38;24.60;;;2.70;;
8092;SDS011;4089;52.420;13.334;2023-05-10T10:18:05;24.50;;;3.10;;
8092;SDS011;4089;52.420;13.334;2023-05-10T10:20:35;23.90;;;2.93;;
8092;SDS011;4089;52.420;13.334;2023-05-10T10:23:03;24.83;;;3.50;;
8092;SDS011;4089;52.420;13.334;2023-05-10T10:25:31;26.43;;;3.37;;
8092;SDS011;4089;52.420;13.334;2023-05-10T10:28:01;25.20;;;2.90;;
8092;SDS011;4089;52.420;13.334;2023-05-10T10:30:42;25.63;;;3.03;;
8092;SDS011;4089;52.420;13.334;2023-05-10T10:33:33;26.33;;;3.47;;
8092;SDS011;4089;52.420;13.334;2023-05-10T10:36:21;26.50;;;2.90;;
8092;SDS011;4089;52.420;13.334;2023-05-10T10:41:34;27.37;;;2.90;;
8092;SDS011;4089;52.420;13.334;2023-05-10T10:44:45;22.90;;;2.73;;
8092;SDS011;4089;52.420;13.334;2023-05-10T10:52:30;26.53;;;2.43;;
8092;SDS011;4089;52.420;13.334;2023-05-10T10:55:00;23.43;;;2.53;;
8092;SDS011;4089;52.420;13.334;2023-05-10T11:00:28;25.10;;;3.10;;
8092;SDS011;4089;52.420;13.334;2023-05-10T11:03:05;27.57;;;2.97;;
8092;SDS011;4089;52.420;13.334;2023-05-10T11:05:43;22.47;;;2.60;;
8092;SDS011;4089;52.420;13.334;2023-05-10T11:16:18;24.10;;;2.90;;
8092;SDS011;4089;52.420;13.334;2023-05-10T11:18:57;28.13;;;2.83;;
8092;SDS011;4089;52.420;13.334;2023-05-10T11:21:31;29.30;;;3.10;;
8092;SDS011;4089;52.420;13.334;2023-05-10T11:24:00;27.13;;;2.90;;
8092;SDS011;4089;52.420;13.334;2023-05-10T11:26:33;26.80;;;3.20;;
8092;SDS011;4089;52.420;13.334;2023-05-10T11:29:01;28.83;;;3.03;;
8092;SDS011;4089;52.420;13.334;2023-05-10T11:31:29;29.90;;;2.90;;
8092;SDS011;4089;52.420;13.334;2023-05-10T11:33:56;22.97;;;2.73;;
8092;SDS011;4089;52.420;13.334;2023-05-10T11:36:29;30.40;;;3.00;;
8092;SDS011;4089;52.420;13.334;2023-05-10T11:39:03;24.63;;;2.80;;
8092;SDS011;4089;52.420;13.334;2023-05-10T11:41:30;23.77;;;2.70;;
8092;SDS011;4089;52.420;13.334;2023-05-10T11:43:58;25.63;;;2.80;;
8092;SDS011;4089;52.420;13.334;2023-05-10T11:46:26;27.30;;;2.90;;
8092;SDS011;4089;52.420;13.334;2023-05-10T11:48:55;25.03;;;2.90;;
8092;SDS011;4089;52.420;13.334;2023-05-10T11:51:24;23.90;;;2.30;;
8092;SDS011;4089;52.420;13.334;2023-05-10T11:53:56;25.60;;;2.80;;
8092;SDS011;4089;52.420;13.334;2023-05-10T11:56:23;28.63;;;3.03;;
8092;SDS011;4089;52.420;13.334;2023-05-10T11:58:53;23.50;;;3.00;;
8092;SDS011;4089;52.420;13.334;2023-05-10T12:01:22;29.20;;;2.80;;
8092;SDS011;4089;52.420;13.334;2023-05-10T12:03:50;27.50;;;2.70;;
8092;SDS011;4089;52.420;13.334;2023-05-10T12:06:19;26.93;;;3.00;;
8092;SDS011;4089;52.420;13.334;2023-05-10T12:08:47;27.70;;;2.50;;
8092;SDS011;4089;52.420;13.334;2023-05-10T12:11:18;24.37;;;2.70;;
8092;SDS011;4089;52.420;13.334;2023-05-10T12:13:47;24.50;;;2.67;;
8092;SDS011;4089;52.420;13.334;2023-05-10T12:16:15;24.67;;;2.70;;
8092;SDS011;4089;52.420;13.334;2023-05-10T12:18:50;28.50;;;3.10;;
8092;SDS011;4089;52.420;13.334;2023-05-10T12:21:18;23.63;;;2.43;;
8092;SDS011;4089;52.420;13.334;2023-05-10T12:23:48;26.30;;;2.53;;
8092;SDS011;4089;52.420;13.334;2023-05-10T12:26:24;30.80;;;2.87;;
8092;SDS011;4089;52.420;13.334;2023-05-10T12:28:54;25.90;;;3.20;;
8092;SDS011;4089;52.420;13.334;2023-05-10T12:31:21;23.90;;;3.00;;
8092;SDS011;4089;52.420;13.334;2023-05-10T12:33:48;23.17;;;2.73;;
8092;SDS011;4089;52.420;13.334;2023-05-10T12:36:15;23.30;;;2.53;;
8092;SDS011;4089;52.420;13.334;2023-05-10T12:38:44;23.87;;;2.77;;
8092;SDS011;4089;52.420;13.334;2023-05-10T12:41:15;31.70;;;2.90;;
8092;SDS011;4089;52.420;13.334;2023-05-10T12:43:43;24.60;;;3.03;;
8092;SDS011;4089;52.420;13.334;2023-05-10T12:46:12;24.17;;;2.30;;
8092;SDS011;4089;52.420;13.334;2023-05-10T12:48:41;24.60;;;3.07;;
8092;SDS011;4089;52.420;13.334;2023-05-10T12:51:09;26.33;;;2.67;;
8092;SDS011;4089;52.420;13.334;2023-05-10T12:53:39;27.70;;;2.70;;
8092;SDS011;4089;52.420;13.334;2023-05-10T12:56:09;24.67;;;2.50;;
8092;SDS011;4089;52.420;13.334;2023-05-10T12:58:36;29.03;;;3.00;;
8092;SDS011;4089;52.420;13.334;2023-05-10T13:01:04;33.37;;;3.10;;
8092;SDS011;4089;52.420;13.334;2023-05-10T13:03:31;30.23;;;2.93;;
8092;SDS011;4089;52.420;13.334;2023-05-10T13:05:58;26.03;;;3.30;;
8092;SDS011;4089;52.420;13.334;2023-05-10T13:08:25;25.00;;;2.33;;
8092;SDS011;4089;52.420;13.334;2023-05-10T13:10:53;28.67;;;2.90;;
8092;SDS011;4089;52.420;13.334;2023-05-10T13:13:20;27.20;;;3.00;;
8092;SDS011;4089;52.420;13.334;2023-05-10T13:15:46;26.43;;;2.67;;
8092;SDS011;4089;52.420;13.334;2023-05-10T13:18:13;27.83;;;2.77;;
8092;SDS011;4089;52.420;13.334;2023-05-10T13:20:40;26.00;;;2.43;;
8092;SDS011;4089;52.420;13.334;2023-05-10T13:23:07;26.10;;;3.23;;
8092;SDS011;4089;52.420;13.334;2023-05-10T13:25:34;27.77;;;2.50;;
8092;SDS011;4089;52.420;13.334;2023-05-10T13:28:01;26.93;;;2.93;;
8092;SDS011;4089;52.420;13.334;2023-05-10T13:30:28;23.30;;;2.60;;
8092;SDS011;4089;52.420;13.334;2023-05-10T13:32:55;27.20;;;2.97;;
8092;SDS011;4089;52.420;13.334;2023-05-10T13:35:21;24.50;;;2.87;;
8092;SDS011;4089;52.420;13.334;2023-05-10T13:37:48;33.10;;;2.63;;
8092;SDS011;4089;52.420;13.334;2023-05-10T13:40:16;27.53;;;2.77;;
8092;SDS011;4089;52.420;13.334;2023-05-10T13:42:43;30.20;;;2.80;;
8092;SDS011;4089;52.420;13.334;2023-05-10T13:45:10;30.20;;;2.77;;
8092;SDS011;4089;52.420;13.334;2023-05-10T13:47:38;27.20;;;2.40;;
8092;SDS011;4089;52.420;13.334;2023-05-10T13:50:05;23.80;;;2.80;;
8092;SDS011;4089;52.420;13.334;2023-05-10T13:52:33;25.00;;;2.87;;
8092;SDS011;4089;52.420;13.334;2023-05-10T13:54:59;23.87;;;2.27;;
8092;SDS011;4089;52.420;13.334;2023-05-10T13:57:26;28.60;;;2.40;;
8092;SDS011;4089;52.420;13.334;2023-05-10T13:59:54;28.93;;;3.23;;
8092;SDS011;4089;52.420;13.334;2023-05-10T14:02:23;31.97;;;3.03;;
8092;SDS011;4089;52.420;13.334;2023-05-10T14:04:51;25.40;;;2.67;;
8092;SDS011;4089;52.420;13.334;2023-05-10T14:07:17;26.33;;;2.60;;
8092;SDS011;4089;52.420;13.334;2023-05-10T14:09:44;28.87;;;2.40;;
8092;SDS011;4089;52.420;13.334;2023-05-10T14:12:11;29.37;;;2.80;;
8092;SDS011;4089;52.420;13.334;2023-05-10T14:14:38;30.07;;;2.67;;
8092;SDS011;4089;52.420;13.334;2023-05-10T14:17:05;28.00;;;3.00;;
8092;SDS011;4089;52.420;13.334;2023-05-10T14:19:32;35.30;;;2.73;;
8092;SDS011;4089;52.420;13.334;2023-05-10T14:22:00;35.23;;;3.00;;
8092;SDS011;4089;52.420;13.334;2023-05-10T14:24:26;31.33;;;2.60;;
8092;SDS011;4089;52.420;13.334;2023-05-10T14:26:53;29.00;;;2.50;;
8092;SDS011;4089;52.420;13.334;2023-05-10T14:29:20;30.20;;;3.17;;
8092;SDS011;4089;52.420;13.334;2023-05-10T14:31:48;26.27;;;2.77;;
8092;SDS011;4089;52.420;13.334;2023-05-10T14:34:15;25.83;;;2.77;;
8092;SDS011;4089;52.420;13.334;2023-05-10T14:36:42;29.20;;;2.80;;
8092;SDS011;4089;52.420;13.334;2023-05-10T14:39:09;25.90;;;2.87;;
8092;SDS011;4089;52.420;13.334;2023-05-10T14:41:38;24.73;;;2.80;;
8092;SDS011;4089;52.420;13.334;2023-05-10T14:44:09;30.23;;;2.70;;
8092;SDS011;4089;52.420;13.334;2023-05-10T14:46:36;25.53;;;2.90;;
8092;SDS011;4089;52.420;13.334;2023-05-10T14:49:03;25.57;;;2.80;;
8092;SDS011;4089;52.420;13.334;2023-05-10T14:51:30;32.80;;;2.80;;
8092;SDS011;4089;52.420;13.334;2023-05-10T14:53:57;28.03;;;2.77;;
8092;SDS011;4089;52.420;13.334;2023-05-10T14:56:25;26.10;;;2.47;;
8092;SDS011;4089;52.420;13.334;2023-05-10T14:58:54;27.43;;;2.80;;
8092;SDS011;4089;52.420;13.334;2023-05-10T15:01:22;27.07;;;2.53;;
8092;SDS011;4089;52.420;13.334;2023-05-10T15:03:49;27.30;;;2.60;;
8092;SDS011;4089;52.420;13.334;2023-05-10T15:06:17;27.00;;;2.60;;
8092;SDS011;4089;52.420;13.334;2023-05-10T15:08:50;28.47;;;2.83;;
8092;SDS011;4089;52.420;13.334;2023-05-10T15:11:18;24.80;;;2.67;;
8092;SDS011;4089;52.420;13.334;2023-05-10T15:13:44;26.37;;;2.90;;
8092;SDS011;4089;52.420;13.334;2023-05-10T15:16:11;30.07;;;2.60;;
8092;SDS011;4089;52.420;13.334;2023-05-10T15:18:38;25.43;;;3.20;;
8092;SDS011;4089;52.420;13.334;2023-05-10T15:21:05;24.10;;;2.20;;
8092;SDS011;4089;52.420;13.334;2023-05-10T15:23:31;25.80;;;2.97;;
8092;SDS011;4089;52.420;13.334;2023-05-10T15:25:59;28.67;;;2.23;;
8092;SDS011;4089;52.420;13.334;2023-05-10T15:28:26;30.30;;;2.43;;
8092;SDS011;4089;52.420;13.334;2023-05-10T15:30:53;31.60;;;2.90;;
8092;SDS011;4089;52.420;13.334;2023-05-10T15:33:21;27.57;;;2.60;;